New Meadows, Idaho
Current Conditions -  °F | °C
As of 4:51 PM on Sunday 23 Nov 2014 (Local Time) from KMYL Reporting Station
Light Snow Light Snow  
Wind Chill: -5°   Ceiling: 6000
Heat Index: -1°   Visibility: 9mi
Dew Point: -4°   Wind: 10mph
Humidity: 76%   Direction: 160°SSE
Pressure: 30.12"   Gusts: NA
Location:  44.97°N, 116.28°W
Report Text: KMYL 232351Z AUTO 16009KT 9SM -SN BKN060 OVC070 M01/M04 A3012 RMK AO2 SLP233 P0000 60001 T10061044 11006 21011 58014
Loading
Personal Weather Stations






























Interactive Weather Map New forecast layout! Learn more

10-Day Weather Forecast

Advertisements
Track Severe Weather on mobile